createdAt,value
2022-11-23T00:00:33.651Z,82.04
2022-11-23T00:03:02.974Z,81.82
2022-11-23T00:05:40.603Z,81.87
2022-11-23T00:08:14.931Z,82.11
2022-11-23T00:10:46.894Z,82.04
2022-11-23T00:13:15.749Z,81.93
2022-11-23T00:15:44.456Z,82.22
2022-11-23T00:18:17.784Z,82.13
2022-11-23T00:20:48.379Z,82.28
2022-11-23T00:23:20.077Z,82.25
2022-11-23T00:25:49.523Z,82.21
2022-11-23T00:28:19.074Z,82.31
2022-11-23T00:30:51.397Z,82.37
2022-11-23T00:33:20.239Z,82.49
2022-11-23T00:36:00.388Z,82.53
2022-11-23T00:38:31.062Z,82.44
2022-11-23T00:41:01.762Z,82.17
2022-11-23T00:43:37.391Z,81.89
2022-11-23T00:46:08.992Z,82.20
2022-11-23T00:48:46.607Z,82.38
2022-11-23T00:51:19.563Z,82.46
2022-11-23T00:53:52.343Z,82.66
2022-11-23T00:56:36.139Z,82.67
2022-11-23T00:59:08.416Z,82.69
2022-11-23T01:01:39.671Z,82.66
2022-11-23T01:04:13.157Z,82.66
2022-11-23T01:06:44.602Z,82.65
2022-11-23T01:09:17.933Z,82.66
2022-11-23T01:11:47.154Z,82.74
2022-11-23T01:14:17.380Z,82.78
2022-11-23T01:16:47.841Z,82.81
2022-11-23T01:19:23.762Z,82.56
2022-11-23T01:21:55.148Z,82.54
2022-11-23T01:24:28.365Z,82.37
2022-11-23T01:26:58.831Z,82.26
2022-11-23T01:29:29.577Z,82.61
2022-11-23T01:32:02.020Z,82.51
2022-11-23T01:38:17.882Z,82.63
2022-11-23T01:40:49.265Z,82.50
2022-11-23T01:43:20.523Z,82.38
2022-11-23T01:45:59.884Z,82.18
2022-11-23T01:48:35.388Z,82.42
2022-11-23T01:51:10.896Z,82.19
2022-11-23T01:53:42.464Z,82.17
2022-11-23T01:56:19.541Z,82.17
2022-11-23T01:59:00.781Z,82.15
2022-11-23T02:01:35.206Z,82.20
2022-11-23T02:04:05.985Z,82.07
2022-11-23T02:06:41.112Z,81.83
2022-11-23T02:09:17.806Z,81.70
2022-11-23T02:11:47.730Z,81.64
2022-11-23T02:14:23.173Z,81.96
2022-11-23T02:17:15.586Z,81.64
2022-11-23T02:20:04.357Z,81.56
2022-11-23T02:22:43.414Z,81.58
2022-11-23T02:25:34.740Z,81.54
2022-11-23T02:28:05.024Z,81.44
2022-11-23T02:30:39.952Z,81.48
2022-11-23T02:33:09.376Z,81.66
2022-11-23T02:35:53.194Z,81.99
2022-11-23T02:38:31.885Z,81.84
2022-11-23T02:41:01.675Z,81.83
2022-11-23T02:43:35.393Z,82.09
2022-11-23T02:46:11.154Z,82.24
2022-11-23T02:48:39.887Z,82.03
2022-11-23T02:51:12.906Z,82.34
2022-11-23T02:53:41.631Z,82.32
2022-11-23T02:56:12.534Z,82.21
2022-11-23T02:58:44.160Z,81.95
2022-11-23T03:01:12.867Z,81.99
2022-11-23T03:03:41.767Z,82.04
2022-11-23T03:06:11.499Z,82.05
2022-11-23T03:08:42.943Z,82.22
2022-11-23T03:11:14.166Z,82.55
2022-11-23T03:13:46.307Z,82.19
2022-11-23T03:16:16.824Z,82.26
2022-11-23T03:18:50.969Z,82.28
2022-11-23T03:21:23.710Z,82.81
2022-11-23T03:23:55.103Z,82.97
2022-11-23T03:26:29.035Z,82.81
2022-11-23T03:29:08.079Z,82.66
2022-11-23T03:31:37.075Z,82.78
2022-11-23T03:34:08.665Z,82.99
2022-11-23T03:36:38.587Z,82.60
2022-11-23T03:39:07.829Z,82.79
2022-11-23T03:41:53.834Z,82.70
2022-11-23T03:44:27.298Z,82.47
2022-11-23T03:46:57.104Z,82.56
2022-11-23T03:49:28.779Z,82.44
2022-11-23T03:51:57.725Z,82.44
2022-11-23T03:54:28.661Z,82.29
2022-11-23T03:56:57.376Z,82.47
2022-11-23T03:59:31.975Z,82.44
2022-11-23T04:02:01.478Z,82.48
2022-11-23T04:04:34.957Z,82.59
2022-11-23T04:07:11.200Z,82.55
2022-11-23T04:09:49.530Z,82.26
2022-11-23T04:12:38.067Z,82.34
2022-11-23T04:15:13.992Z,82.38
2022-11-23T04:17:44.800Z,82.60
2022-11-23T04:20:21.440Z,82.46
2022-11-23T04:22:56.588Z,82.46
2022-11-23T04:25:28.900Z,82.44
2022-11-23T04:27:58.144Z,82.42
2022-11-23T04:30:29.087Z,82.35
2022-11-23T04:33:10.102Z,82.37
2022-11-23T04:35:49.553Z,82.41
2022-11-23T04:38:23.385Z,82.44
2022-11-23T04:40:53.592Z,82.32
2022-11-23T04:43:23.457Z,82.03
2022-11-23T04:45:53.804Z,82.25
2022-11-23T04:48:29.225Z,82.09
2022-11-23T04:51:10.442Z,81.83
2022-11-23T04:53:44.934Z,81.96
2022-11-23T04:56:22.588Z,82.09
2022-11-23T04:59:18.092Z,82.12
2022-11-23T05:02:18.546Z,82.22
2022-11-23T05:04:54.242Z,82.09
2022-11-23T05:07:28.613Z,82.22
2022-11-23T05:10:03.115Z,82.49
2022-11-23T05:12:34.221Z,82.43
2022-11-23T05:15:19.988Z,82.34
2022-11-23T05:18:03.165Z,81.99
2022-11-23T05:20:32.941Z,82.04
2022-11-23T05:23:06.364Z,82.01
2022-11-23T05:25:39.638Z,81.97
2022-11-23T05:28:39.680Z,81.94
2022-11-23T05:31:15.940Z,81.96
2022-11-23T05:33:49.336Z,82.23
2022-11-23T05:36:41.954Z,82.20
2022-11-23T05:39:11.680Z,82.55
2022-11-23T05:41:43.797Z,82.45
2022-11-23T05:44:29.514Z,82.33
2022-11-23T05:47:17.273Z,82.68
2022-11-23T05:49:47.413Z,82.64
2022-11-23T05:52:21.439Z,82.87
2022-11-23T05:55:05.930Z,82.87
2022-11-23T05:57:39.931Z,82.65
2022-11-23T06:00:13.373Z,82.61
2022-11-23T06:02:55.941Z,82.77
2022-11-23T06:05:34.776Z,82.89
2022-11-23T06:08:06.911Z,82.87
2022-11-23T06:10:39.669Z,83.00
2022-11-23T06:13:11.953Z,83.17
2022-11-23T06:15:55.063Z,83.13
2022-11-23T06:18:32.186Z,83.21
2022-11-23T06:21:04.622Z,83.05
2022-11-23T06:23:34.165Z,83.15
2022-11-23T06:26:03.867Z,83.32
2022-11-23T06:28:44.830Z,83.11
2022-11-23T06:31:16.251Z,82.88
2022-11-23T06:34:00.907Z,82.81
2022-11-23T06:36:40.282Z,83.06
2022-11-23T06:39:09.856Z,82.84
2022-11-23T06:41:40.586Z,83.05
2022-11-23T06:44:18.270Z,82.95
2022-11-23T06:46:49.134Z,82.76
2022-11-23T06:49:19.458Z,82.54
2022-11-23T06:51:59.737Z,82.66
2022-11-23T06:54:29.231Z,82.68
2022-11-23T06:57:01.007Z,82.64
2022-11-23T06:59:31.600Z,82.49
2022-11-23T07:02:09.414Z,82.33
2022-11-23T07:04:48.538Z,82.14
2022-11-23T07:07:20.828Z,81.67
2022-11-23T07:10:01.570Z,81.81
2022-11-23T07:12:44.070Z,81.74
2022-11-23T07:15:18.210Z,81.60
2022-11-23T07:17:49.317Z,81.44
2022-11-23T07:20:20.851Z,81.55
2022-11-23T07:23:00.814Z,81.49
2022-11-23T07:25:31.140Z,81.43
2022-11-23T07:28:05.819Z,80.96
2022-11-23T07:30:37.164Z,81.11
2022-11-23T07:33:19.139Z,80.81
2022-11-23T07:36:20.961Z,80.78
2022-11-23T07:38:54.736Z,80.59
2022-11-23T07:41:27.594Z,80.29
2022-11-23T07:44:15.244Z,80.00
2022-11-23T07:46:49.725Z,80.00
2022-11-23T07:49:18.495Z,80.14
2022-11-23T07:51:47.952Z,80.27
2022-11-23T07:54:22.227Z,80.52
2022-11-23T07:56:52.560Z,80.31
2022-11-23T07:59:22.915Z,80.07
2022-11-23T08:01:58.311Z,80.11
2022-11-23T08:04:28.267Z,79.73
2022-11-23T08:06:57.158Z,79.76
2022-11-23T08:09:27.211Z,79.74
2022-11-23T08:11:55.877Z,79.65
2022-11-23T08:14:24.687Z,79.98
2022-11-23T08:16:53.500Z,79.94
2022-11-23T08:19:22.222Z,79.91
2022-11-23T08:21:52.265Z,79.85
2022-11-23T08:24:20.981Z,79.54
2022-11-23T08:26:50.979Z,79.59
2022-11-23T08:29:21.858Z,79.50
2022-11-23T08:31:52.916Z,79.78
2022-11-23T08:34:21.752Z,79.19
2022-11-23T08:36:50.549Z,79.22
2022-11-23T08:39:19.505Z,79.04
2022-11-23T08:41:48.141Z,79.36
2022-11-23T08:44:18.184Z,79.32
2022-11-23T08:46:47.017Z,79.55
2022-11-23T08:49:15.695Z,79.26
2022-11-23T08:51:48.626Z,79.54
2022-11-23T08:54:18.805Z,79.67
2022-11-23T08:56:47.542Z,79.06
2022-11-23T08:59:18.777Z,79.44
2022-11-23T09:01:47.943Z,80.02
2022-11-23T09:04:20.666Z,80.25
2022-11-23T09:07:00.360Z,80.20
2022-11-23T09:09:29.090Z,80.22
2022-11-23T09:11:57.731Z,80.44
2022-11-23T09:14:28.303Z,80.63
2022-11-23T09:16:57.279Z,80.79
2022-11-23T09:19:25.976Z,80.77
2022-11-23T09:21:54.606Z,81.13
2022-11-23T09:24:23.849Z,81.14
2022-11-23T09:26:52.566Z,81.02
2022-11-23T09:29:21.267Z,81.41
2022-11-23T09:31:51.251Z,81.30
2022-11-23T09:34:19.978Z,81.11
2022-11-23T09:36:48.753Z,81.47
2022-11-23T09:39:17.789Z,81.86
2022-11-23T09:42:13.522Z,81.84
2022-11-23T09:45:06.688Z,81.52
2022-11-23T09:48:01.660Z,81.42
2022-11-23T09:50:47.054Z,81.32
2022-11-23T09:53:23.979Z,81.17
2022-11-23T09:55:57.714Z,81.20
2022-11-23T09:58:32.454Z,81.14
2022-11-23T10:01:04.528Z,81.17
2022-11-23T10:03:43.891Z,81.16
2022-11-23T10:06:21.240Z,81.02
2022-11-23T10:09:20.758Z,81.18
2022-11-23T10:12:37.201Z,80.79
2022-11-23T10:15:16.592Z,81.13
2022-11-23T10:18:23.885Z,81.32
2022-11-23T10:21:05.135Z,81.32
2022-11-23T10:23:54.784Z,81.46
2022-11-23T10:26:33.059Z,81.80
2022-11-23T10:29:15.285Z,82.15
2022-11-23T10:31:52.602Z,82.28
2022-11-23T10:34:45.948Z,82.67
2022-11-23T10:37:19.522Z,82.66
2022-11-23T10:39:50.484Z,83.43
2022-11-23T10:42:26.996Z,83.76
2022-11-23T10:45:00.566Z,84.10
2022-11-23T10:47:55.097Z,84.12
2022-11-23T10:50:34.873Z,83.88
2022-11-23T10:53:26.105Z,83.51
2022-11-23T10:56:01.872Z,83.34
2022-11-23T10:58:35.165Z,83.06
2022-11-23T11:01:07.467Z,83.00
2022-11-23T11:03:40.818Z,82.96
2022-11-23T11:06:19.608Z,82.98
2022-11-23T11:08:55.567Z,82.83
2022-11-23T11:11:28.386Z,82.76
2022-11-23T11:14:06.835Z,82.82
2022-11-23T11:16:37.779Z,82.73
2022-11-23T11:19:28.419Z,83.00
2022-11-23T11:21:58.523Z,83.14
2022-11-23T11:24:35.279Z,83.02
2022-11-23T11:27:15.996Z,82.94
2022-11-23T11:29:55.129Z,83.17
2022-11-23T11:32:33.187Z,82.95
2022-11-23T11:35:19.121Z,82.78
2022-11-23T11:37:53.801Z,82.77
2022-11-23T11:40:35.795Z,82.72
2022-11-23T11:43:13.035Z,82.29
2022-11-23T11:46:13.299Z,82.38
2022-11-23T11:48:40.359Z,82.18
2022-11-23T11:51:19.012Z,82.27
2022-11-23T11:53:58.999Z,82.33
2022-11-23T11:56:39.596Z,82.26
2022-11-23T11:59:27.959Z,82.14
2022-11-23T12:02:10.741Z,82.14
2022-11-23T12:04:50.865Z,82.64
2022-11-23T12:07:28.744Z,82.24
2022-11-23T12:10:08.141Z,82.42
2022-11-23T12:12:38.952Z,82.56
2022-11-23T12:15:41.415Z,82.05
2022-11-23T12:18:31.721Z,81.72
2022-11-23T12:21:07.045Z,82.05
2022-11-23T12:23:51.568Z,82.38
2022-11-23T12:26:33.032Z,81.97
2022-11-23T12:29:35.318Z,82.25
2022-11-23T12:32:25.739Z,82.45
2022-11-23T12:35:37.759Z,82.67
2022-11-23T12:38:26.663Z,82.58
2022-11-23T12:41:42.256Z,82.15
2022-11-23T12:45:13.388Z,82.24
2022-11-23T12:47:59.215Z,82.15
2022-11-23T12:50:39.643Z,81.70
2022-11-23T12:53:36.778Z,81.65
2022-11-23T12:56:26.167Z,81.44
2022-11-23T12:58:59.590Z,81.70
2022-11-23T13:01:42.023Z,81.90
2022-11-23T13:04:54.253Z,82.09
2022-11-23T13:08:16.921Z,82.19
2022-11-23T13:11:16.181Z,82.10
2022-11-23T13:14:13.198Z,82.19
2022-11-23T13:17:15.741Z,82.23
2022-11-23T13:20:31.916Z,82.09
2022-11-23T13:23:01.593Z,81.87
2022-11-23T13:25:34.328Z,81.90
2022-11-23T13:28:06.074Z,81.73
2022-11-23T13:31:07.267Z,81.59
2022-11-23T13:33:38.040Z,81.59
2022-11-23T13:36:16.865Z,81.24
2022-11-23T13:38:49.066Z,81.00
2022-11-23T13:42:01.722Z,81.05
2022-11-23T13:44:33.566Z,80.95
2022-11-23T13:47:21.770Z,81.14
2022-11-23T13:49:53.911Z,80.90
2022-11-23T13:52:32.453Z,80.78
2022-11-23T13:55:17.621Z,80.81
2022-11-23T13:58:07.857Z,81.06
2022-11-23T14:00:56.153Z,80.82
2022-11-23T14:03:57.092Z,80.75
2022-11-23T14:06:42.295Z,80.68
2022-11-23T14:09:20.363Z,80.50
2022-11-23T14:12:18.001Z,80.57
2022-11-23T14:14:57.331Z,80.60
2022-11-23T14:18:08.884Z,80.56
2022-11-23T14:20:51.100Z,80.52
2022-11-23T14:23:54.914Z,80.81
2022-11-23T14:26:37.583Z,80.85
2022-11-23T14:29:35.914Z,80.68
2022-11-23T14:32:28.986Z,80.71
2022-11-23T14:35:26.076Z,80.77
2022-11-23T14:38:28.959Z,80.89
2022-11-23T14:41:09.495Z,80.96
2022-11-23T14:43:43.551Z,81.09
2022-11-23T14:46:20.171Z,80.83
2022-11-23T14:48:50.175Z,80.74
2022-11-23T14:51:24.230Z,80.72
2022-11-23T14:53:57.029Z,80.86
2022-11-23T14:56:35.302Z,80.82
2022-11-23T14:59:08.161Z,80.83
2022-11-23T15:01:39.414Z,80.96
2022-11-23T15:04:22.948Z,81.00
2022-11-23T15:06:57.664Z,81.01
2022-11-23T15:09:48.407Z,80.81
2022-11-23T15:12:27.851Z,80.81
2022-11-23T15:14:58.610Z,80.76
2022-11-23T15:17:27.639Z,80.91
2022-11-23T15:19:59.004Z,80.82
2022-11-23T15:22:31.252Z,80.71
2022-11-23T15:25:09.193Z,80.88
2022-11-23T15:27:42.817Z,80.86
2022-11-23T15:30:19.860Z,80.96
2022-11-23T15:32:58.691Z,80.72
2022-11-23T15:35:37.189Z,80.94
2022-11-23T15:38:24.352Z,81.05
2022-11-23T15:41:05.250Z,80.96
2022-11-23T15:43:35.582Z,80.94
2022-11-23T15:46:12.811Z,80.81
2022-11-23T15:48:41.913Z,80.88
2022-11-23T15:51:29.607Z,80.91
2022-11-23T15:54:03.629Z,81.04
2022-11-23T15:56:37.730Z,80.90
2022-11-23T15:59:33.503Z,81.08
2022-11-23T16:02:03.305Z,81.11
2022-11-23T16:04:39.984Z,81.04
2022-11-23T16:07:21.308Z,81.17
2022-11-23T16:09:53.609Z,81.22
2022-11-23T16:12:33.872Z,81.31
2022-11-23T16:16:00.881Z,81.14
2022-11-23T16:18:32.575Z,81.12
2022-11-23T16:21:06.640Z,80.72
2022-11-23T16:23:46.395Z,80.54
2022-11-23T16:26:15.621Z,80.69
2022-11-23T16:29:02.269Z,80.57
2022-11-23T16:31:42.565Z,80.79
2022-11-23T16:34:19.604Z,80.52
2022-11-23T16:36:49.014Z,80.54
2022-11-23T16:39:18.271Z,80.50
2022-11-23T16:41:46.924Z,80.32
2022-11-23T16:44:15.881Z,80.65
2022-11-23T16:46:46.980Z,80.82
2022-11-23T16:49:21.701Z,80.74
2022-11-23T16:51:57.175Z,80.55
2022-11-23T16:54:26.331Z,80.50
2022-11-23T16:56:55.133Z,80.30
2022-11-23T16:59:24.119Z,80.65
2022-11-23T17:01:57.482Z,80.70
2022-11-23T17:04:27.208Z,80.74
2022-11-23T17:06:56.011Z,80.91
2022-11-23T17:09:24.805Z,80.85
2022-11-23T17:11:53.423Z,80.99
2022-11-23T17:14:26.715Z,81.19
2022-11-23T17:17:00.103Z,81.10
2022-11-23T17:19:28.856Z,81.08
2022-11-23T17:21:57.515Z,81.14
2022-11-23T17:24:27.045Z,80.87
2022-11-23T17:26:56.250Z,80.96
2022-11-23T17:29:25.146Z,80.78
2022-11-23T17:31:53.980Z,80.59
2022-11-23T17:34:24.325Z,80.59
2022-11-23T17:36:53.536Z,80.88
2022-11-23T17:39:26.326Z,80.91
2022-11-23T17:41:57.704Z,80.76
2022-11-23T17:44:30.222Z,80.76
2022-11-23T17:47:02.227Z,80.86
2022-11-23T17:49:33.315Z,80.79
2022-11-23T17:52:02.142Z,80.63
2022-11-23T17:54:32.335Z,80.68
2022-11-23T17:57:02.113Z,80.72
2022-11-23T17:59:31.143Z,80.78
2022-11-23T18:01:59.986Z,80.93
2022-11-23T18:04:28.711Z,81.08
2022-11-23T18:06:59.890Z,81.02
2022-11-23T18:09:28.617Z,80.80
2022-11-23T18:11:57.270Z,81.03
2022-11-23T18:14:28.929Z,80.83
2022-11-23T18:16:58.184Z,80.85
2022-11-23T18:19:27.358Z,81.08
2022-11-23T18:21:56.231Z,81.11
2022-11-23T18:24:26.725Z,81.36
2022-11-23T18:26:55.814Z,81.51
2022-11-23T18:29:24.709Z,81.41
2022-11-23T18:31:53.845Z,81.14
2022-11-23T18:34:23.646Z,81.44
2022-11-23T18:36:52.296Z,81.55
2022-11-23T18:39:21.369Z,81.70
2022-11-23T18:41:51.993Z,81.30
2022-11-23T18:44:20.648Z,81.39
2022-11-23T18:46:49.544Z,81.24
2022-11-23T18:49:18.254Z,81.25
2022-11-23T18:51:47.119Z,81.44
2022-11-23T18:54:15.770Z,81.26
2022-11-23T18:56:44.701Z,81.24
2022-11-23T18:59:35.044Z,81.33
2022-11-23T19:02:03.620Z,81.30
2022-11-23T19:04:34.375Z,81.35
2022-11-23T19:07:03.519Z,81.29
2022-11-23T19:09:34.852Z,81.44
2022-11-23T19:12:03.926Z,81.31
2022-11-23T19:14:34.122Z,81.25
2022-11-23T19:17:03.502Z,81.03
2022-11-23T19:19:33.671Z,80.97
2022-11-23T19:22:02.434Z,81.06
2022-11-23T19:24:31.030Z,80.79
2022-11-23T19:26:59.755Z,80.54
2022-11-23T19:29:31.340Z,80.74
2022-11-23T19:32:01.379Z,80.76
2022-11-23T19:34:30.599Z,80.62
2022-11-23T19:36:59.285Z,80.75
2022-11-23T19:39:28.424Z,81.00
2022-11-23T19:41:59.097Z,81.08
2022-11-23T19:44:27.785Z,81.17
2022-11-23T19:46:56.485Z,80.90
2022-11-23T19:49:26.554Z,80.62
2022-11-23T19:51:56.325Z,80.62
2022-11-23T19:54:25.134Z,80.76
2022-11-23T19:56:54.450Z,80.78
2022-11-23T19:59:27.982Z,80.58
2022-11-23T20:01:57.741Z,80.56
2022-11-23T20:04:28.093Z,80.57
2022-11-23T20:06:56.873Z,80.68
2022-11-23T20:09:27.943Z,80.62
2022-11-23T20:11:56.559Z,80.57
2022-11-23T20:14:25.293Z,80.62
2022-11-23T20:16:54.047Z,80.73
2022-11-23T20:19:22.796Z,80.32
2022-11-23T20:21:53.380Z,80.29
2022-11-23T20:24:22.016Z,80.64
2022-11-23T20:26:50.667Z,80.65
2022-11-23T20:29:19.482Z,80.34
2022-11-23T20:31:48.282Z,80.04
2022-11-23T20:34:22.013Z,80.41
2022-11-23T20:36:54.354Z,80.32
2022-11-23T20:39:24.709Z,80.51
2022-11-23T20:41:53.385Z,80.64
2022-11-23T20:44:23.608Z,80.71
2022-11-23T20:47:01.887Z,80.66
2022-11-23T20:49:31.643Z,80.68
2022-11-23T20:52:02.001Z,80.38
2022-11-23T20:54:31.178Z,80.29
2022-11-23T20:57:00.742Z,80.50
2022-11-23T20:59:30.073Z,80.56
2022-11-23T21:01:58.858Z,80.50
2022-11-23T21:04:27.831Z,80.51
2022-11-23T21:06:56.584Z,80.46
2022-11-23T21:09:26.701Z,80.31
2022-11-23T21:12:21.512Z,80.41
2022-11-23T21:14:50.138Z,80.19
2022-11-23T21:17:19.481Z,80.19
2022-11-23T21:19:49.609Z,80.01
2022-11-23T21:22:18.779Z,79.90
2022-11-23T21:24:49.307Z,79.97
2022-11-23T21:27:19.745Z,80.15
2022-11-23T21:29:50.389Z,80.25
2022-11-23T21:32:19.004Z,80.19
2022-11-23T21:34:47.627Z,80.31
2022-11-23T21:37:16.344Z,80.00
2022-11-23T21:39:51.114Z,80.08
2022-11-23T21:42:23.132Z,80.10
2022-11-23T21:44:52.248Z,79.97
2022-11-23T21:47:21.246Z,80.09
2022-11-23T21:49:50.114Z,80.22
2022-11-23T21:52:19.074Z,80.31
2022-11-23T21:54:49.408Z,80.25
2022-11-23T21:57:17.991Z,80.45
2022-11-23T21:59:47.998Z,80.56
2022-11-23T22:02:16.682Z,80.45
2022-11-23T22:04:45.318Z,80.58
2022-11-23T22:07:14.000Z,80.74
2022-11-23T22:09:42.640Z,80.68
2022-11-23T22:12:13.403Z,80.43
2022-11-23T22:14:42.015Z,80.68
2022-11-23T22:17:29.196Z,80.50
2022-11-23T22:19:58.093Z,80.64
2022-11-23T22:22:26.871Z,80.40
2022-11-23T22:24:56.575Z,80.41
2022-11-23T22:27:25.265Z,80.48
2022-11-23T22:29:55.943Z,80.62
2022-11-23T22:32:24.655Z,80.59
2022-11-23T22:34:54.895Z,80.53
2022-11-23T22:37:27.177Z,80.62
2022-11-23T22:39:58.198Z,80.63
2022-11-23T22:42:27.403Z,80.62
2022-11-23T22:45:00.589Z,80.36
2022-11-23T22:47:30.300Z,80.44
2022-11-23T22:50:00.961Z,80.51
2022-11-23T22:52:29.928Z,80.34
2022-11-23T22:55:00.419Z,80.13
2022-11-23T22:57:29.470Z,80.42
2022-11-23T22:59:58.081Z,80.50
2022-11-23T23:02:35.327Z,80.62
2022-11-23T23:05:08.163Z,80.59
2022-11-23T23:07:40.287Z,80.49
2022-11-23T23:10:10.803Z,80.82
2022-11-23T23:12:41.070Z,80.66
2022-11-23T23:15:10.641Z,80.87
2022-11-23T23:17:42.912Z,80.95
2022-11-23T23:20:17.176Z,81.00
2022-11-23T23:22:45.929Z,80.90
2022-11-23T23:25:14.534Z,81.00
2022-11-23T23:27:43.567Z,81.00
2022-11-23T23:30:15.673Z,80.96
2022-11-23T23:32:44.256Z,80.90
2022-11-23T23:35:12.927Z,80.68
2022-11-23T23:37:42.969Z,80.78
2022-11-23T23:40:12.554Z,80.97
2022-11-23T23:42:42.177Z,81.09
2022-11-23T23:45:11.682Z,81.03
2022-11-23T23:47:40.355Z,80.86
2022-11-23T23:50:10.997Z,80.92
2022-11-23T23:52:39.630Z,81.05
2022-11-23T23:55:10.884Z,81.00
2022-11-23T23:57:39.505Z,81.06
